Time;durP1;ratioP1;P1;durP2;ratioP2;P2;SDS_P1;SDS_P2;PMS_P1;PMS_P2;Temp;Humidity;BMP_temperature;BMP_pressure;BME280_temperature;BME280_humidity;BME280_pressure;Samples;Min_cycle;Max_cycle;Signal;HPM_P1;HPM_P2
2022/04/02 00:01:47;;;;;;;;;14.25;13.75;;;;;;;;5075589;27;51572;-61
2022/04/02 00:04:46;;;;;;;;;26.25;22.00;;;;;;;;5078008;27;51175;-61
2022/04/02 00:07:31;;;;;;;;;28.75;26.50;;;;;;;;5080508;27;51039;-62
2022/04/02 00:10:17;;;;;;;;;27.75;21.00;;;;;;;;5080468;27;51059;-62
2022/04/02 00:13:01;;;;;;;;;17.50;15.00;;;;;;;;5080644;27;51235;-62
2022/04/02 00:15:46;;;;;;;;;21.50;20.25;;;;;;;;5080426;27;51186;-62
2022/04/02 00:18:43;;;;;;;;;27.50;21.00;;;;;;;;5080549;27;51628;-61
2022/04/02 00:21:49;;;;;;;;;28.75;20.50;;;;;;;;5079813;27;51096;-62
2022/04/02 00:24:37;;;;;;;;;25.75;19.25;;;;;;;;5080093;27;51120;-61
2022/04/02 00:27:21;;;;;;;;;30.00;23.00;;;;;;;;5080142;27;51427;-63
2022/04/02 00:30:06;;;;;;;;;22.25;21.50;;;;;;;;5079937;27;51150;-64
2022/04/02 00:32:52;;;;;;;;;27.25;25.50;;;;;;;;5080453;27;51168;-64
2022/04/02 00:35:40;;;;;;;;;26.25;22.50;;;;;;;;5079872;27;51216;-63
2022/04/02 00:38:28;;;;;;;;;32.75;27.50;;;;;;;;5080137;27;51180;-61
2022/04/02 00:41:32;;;;;;;;;42.00;29.25;;;;;;;;5079542;27;51205;-62
2022/04/02 00:44:17;;;;;;;;;36.25;31.25;;;;;;;;5080104;27;51184;-62
2022/04/02 00:47:07;;;;;;;;;28.50;24.75;;;;;;;;5080132;27;51383;-62
2022/04/02 00:50:00;;;;;;;;;34.00;28.75;;;;;;;;5079549;27;51080;-62
2022/04/02 00:52:45;;;;;;;;;29.50;24.75;;;;;;;;5078457;27;51179;-63
2022/04/02 00:55:32;;;;;;;;;31.00;25.25;;;;;;;;5078867;27;51081;-61
2022/04/02 00:58:22;;;;;;;;;29.00;24.50;;;;;;;;5078796;27;51216;-62
2022/04/02 01:01:08;;;;;;;;;35.75;22.25;;;;;;;;5074776;27;51100;-63
2022/04/02 01:04:02;;;;;;;;;36.50;26.00;;;;;;;;5079650;27;51037;-60
2022/04/02 01:06:50;;;;;;;;;23.75;19.00;;;;;;;;5079079;27;51489;-60
2022/04/02 01:09:37;;;;;;;;;35.25;25.50;;;;;;;;5079347;27;51670;-62
2022/04/02 01:12:30;;;;;;;;;21.25;15.75;;;;;;;;5079237;27;51147;-64
2022/04/02 01:15:16;;;;;;;;;24.00;19.25;;;;;;;;5079205;27;51073;-61
2022/04/02 01:18:01;;;;;;;;;22.75;19.25;;;;;;;;5079606;27;51592;-62
2022/04/02 01:20:48;;;;;;;;;25.75;20.50;;;;;;;;5079009;27;51091;-62
2022/04/02 01:23:39;;;;;;;;;24.50;18.75;;;;;;;;5077442;27;51514;-62
2022/04/02 01:26:28;;;;;;;;;21.25;17.00;;;;;;;;5077738;27;51175;-62
2022/04/02 01:29:39;;;;;;;;;19.25;13.75;;;;;;;;5078639;27;51390;-62
2022/04/02 01:32:25;;;;;;;;;18.00;13.25;;;;;;;;5078035;27;51107;-61
2022/04/02 01:35:22;;;;;;;;;18.25;15.00;;;;;;;;5079282;27;51054;-60
2022/04/02 01:38:12;;;;;;;;;18.00;14.50;;;;;;;;5079305;27;51239;-61
2022/04/02 01:41:06;;;;;;;;;17.75;11.50;;;;;;;;5079390;28;50991;-62
2022/04/02 01:43:53;;;;;;;;;13.50;10.00;;;;;;;;5077965;28;51525;-62
2022/04/02 01:46:43;;;;;;;;;15.50;12.50;;;;;;;;5079163;28;51119;-60
2022/04/02 01:49:37;;;;;;;;;17.00;12.00;;;;;;;;5079400;28;51145;-63
2022/04/02 01:52:22;;;;;;;;;14.50;10.00;;;;;;;;5079037;28;51333;-60
2022/04/02 01:55:12;;;;;;;;;17.75;12.00;;;;;;;;5079184;27;51117;-62
2022/04/02 01:58:20;;;;;;;;;17.00;12.50;;;;;;;;5078739;27;51147;-61
2022/04/02 02:01:09;;;;;;;;;16.50;13.75;;;;;;;;5078870;28;51615;-62
2022/04/02 02:03:55;;;;;;;;;18.00;13.50;;;;;;;;5078410;28;51125;-61
2022/04/02 02:06:45;;;;;;;;;16.25;10.00;;;;;;;;5079439;28;51149;-61
2022/04/02 02:09:33;;;;;;;;;23.25;14.00;;;;;;;;5078874;28;51466;-63
2022/04/02 02:12:20;;;;;;;;;15.75;13.75;;;;;;;;5079385;27;51202;-62
2022/04/02 02:15:08;;;;;;;;;21.00;11.75;;;;;;;;5082878;27;51554;-63
2022/04/02 02:17:54;;;;;;;;;19.75;14.25;;;;;;;;5080871;27;51254;-65
2022/04/02 02:20:45;;;;;;;;;21.50;12.75;;;;;;;;5082471;27;51464;-61
2022/04/02 02:23:33;;;;;;;;;18.25;13.00;;;;;;;;5082342;27;51199;-62
2022/04/02 02:26:27;;;;;;;;;13.75;10.50;;;;;;;;5082050;27;51470;-62
2022/04/02 02:29:14;;;;;;;;;13.00;11.00;;;;;;;;5080511;27;51140;-61
2022/04/02 02:31:59;;;;;;;;;20.50;13.25;;;;;;;;5083045;27;51062;-62
2022/04/02 02:38:08;;;;;;;;;13.50;9.25;;;;;;;;5062225;27;51094;-63
2022/04/02 02:40:53;;;;;;;;;12.00;10.50;;;;;;;;5081977;27;51094;-63
2022/04/02 02:43:57;;;;;;;;;15.25;11.50;;;;;;;;5080829;27;51399;-64
2022/04/02 02:46:41;;;;;;;;;12.50;9.50;;;;;;;;5078545;27;51399;-61
2022/04/02 02:49:28;;;;;;;;;15.00;9.50;;;;;;;;5081024;27;51069;-61
2022/04/02 02:52:15;;;;;;;;;15.75;10.00;;;;;;;;5080448;27;51188;-61
2022/04/02 02:55:02;;;;;;;;;11.25;9.25;;;;;;;;5080093;27;51030;-63
2022/04/02 02:57:47;;;;;;;;;11.75;9.25;;;;;;;;5082382;27;51078;-64
2022/04/02 03:00:31;;;;;;;;;15.00;11.00;;;;;;;;5077311;27;51507;-60
2022/04/02 03:03:16;;;;;;;;;16.25;10.75;;;;;;;;5080822;27;51167;-62
2022/04/02 03:06:02;;;;;;;;;19.00;16.25;;;;;;;;5080945;27;51170;-62
2022/04/02 03:08:47;;;;;;;;;22.50;14.00;;;;;;;;5081725;27;51377;-62
2022/04/02 03:11:57;;;;;;;;;18.25;12.75;;;;;;;;5080281;27;51415;-61
2022/04/02 03:14:42;;;;;;;;;19.50;15.25;;;;;;;;5081947;27;51124;-62
2022/04/02 03:17:28;;;;;;;;;17.25;14.75;;;;;;;;5081379;27;51212;-62
2022/04/02 03:20:19;;;;;;;;;19.50;18.00;;;;;;;;5081588;27;51079;-60
2022/04/02 03:23:05;;;;;;;;;22.25;16.50;;;;;;;;5080545;27;51082;-62
2022/04/02 03:25:59;;;;;;;;;28.50;18.50;;;;;;;;5080938;27;51444;-61
2022/04/02 03:29:08;;;;;;;;;22.75;16.75;;;;;;;;5080972;27;51198;-65
2022/04/02 03:31:55;;;;;;;;;17.25;17.25;;;;;;;;5079472;27;51396;-60
2022/04/02 03:34:51;;;;;;;;;24.25;20.50;;;;;;;;5081589;27;51046;-62
2022/04/02 03:37:37;;;;;;;;;20.25;15.75;;;;;;;;5081176;27;51499;-61
2022/04/02 03:40:33;;;;;;;;;19.25;16.00;;;;;;;;5081065;27;51197;-63
2022/04/02 03:43:17;;;;;;;;;24.00;18.50;;;;;;;;5076291;27;51103;-62
2022/04/02 03:49:06;;;;;;;;;15.50;9.50;;;;;;;;5081207;27;51053;-63
2022/04/02 03:51:52;;;;;;;;;17.50;11.00;;;;;;;;5079495;27;51438;-60
2022/04/02 03:55:01;;;;;;;;;10.50;8.50;;;;;;;;5077300;27;51064;-61
2022/04/02 03:57:47;;;;;;;;;10.50;7.00;;;;;;;;5080500;27;51085;-63
2022/04/02 04:00:38;;;;;;;;;10.50;8.25;;;;;;;;5080949;27;51171;-60
2022/04/02 04:03:24;;;;;;;;;15.75;10.25;;;;;;;;5080540;27;51647;-62
2022/04/02 04:06:09;;;;;;;;;14.00;11.00;;;;;;;;5080785;27;51172;-61
2022/04/02 04:08:58;;;;;;;;;14.75;11.00;;;;;;;;5080771;27;51168;-62
2022/04/02 04:11:44;;;;;;;;;9.75;8.75;;;;;;;;5080506;27;51111;-60
2022/04/02 04:14:28;;;;;;;;;14.00;9.25;;;;;;;;5077465;27;51168;-61
2022/04/02 04:17:30;;;;;;;;;14.25;11.25;;;;;;;;5080170;27;51094;-61
2022/04/02 04:20:27;;;;;;;;;18.75;13.25;;;;;;;;5078752;27;51137;-64
2022/04/02 04:23:12;;;;;;;;;12.00;9.75;;;;;;;;5079093;27;51167;-64
2022/04/02 04:25:59;;;;;;;;;13.00;10.75;;;;;;;;5080564;27;51056;-62
2022/04/02 04:28:56;;;;;;;;;12.25;10.25;;;;;;;;5078213;27;51025;-62
2022/04/02 04:31:40;;;;;;;;;11.75;9.50;;;;;;;;5074965;27;51158;-64
2022/04/02 04:34:25;;;;;;;;;15.25;9.25;;;;;;;;5080244;27;51414;-63
2022/04/02 04:37:19;;;;;;;;;9.75;7.75;;;;;;;;5079828;27;51137;-62
2022/04/02 04:40:05;;;;;;;;;11.00;9.00;;;;;;;;5079771;27;51097;-61
2022/04/02 04:42:50;;;;;;;;;15.00;9.50;;;;;;;;5077536;27;51108;-62
2022/04/02 04:45:36;;;;;;;;;12.50;8.75;;;;;;;;5080037;27;51252;-61
2022/04/02 04:48:22;;;;;;;;;21.75;10.00;;;;;;;;5078718;27;51073;-62
2022/04/02 04:51:10;;;;;;;;;13.25;10.75;;;;;;;;5079663;27;51166;-63
2022/04/02 04:53:56;;;;;;;;;10.75;7.75;;;;;;;;5076982;27;51129;-61
2022/04/02 04:56:40;;;;;;;;;14.00;9.00;;;;;;;;5078721;27;51037;-61
2022/04/02 04:59:26;;;;;;;;;14.50;10.50;;;;;;;;5079571;27;51141;-62
2022/04/02 05:02:12;;;;;;;;;12.50;8.75;;;;;;;;5079148;27;51188;-63
2022/04/02 05:04:58;;;;;;;;;13.50;9.25;;;;;;;;5079991;27;51125;-63
2022/04/02 05:07:46;;;;;;;;;13.75;7.75;;;;;;;;5079836;27;50999;-63
2022/04/02 05:10:31;;;;;;;;;10.00;8.50;;;;;;;;5078849;27;51256;-64
2022/04/02 05:13:15;;;;;;;;;14.25;8.75;;;;;;;;5076612;27;51149;-62
2022/04/02 05:16:03;;;;;;;;;13.00;9.50;;;;;;;;5074159;27;51124;-61
2022/04/02 05:18:52;;;;;;;;;14.25;10.50;;;;;;;;5079353;27;51388;-64
2022/04/02 05:21:36;;;;;;;;;13.75;9.00;;;;;;;;5077964;27;51049;-61
2022/04/02 05:24:22;;;;;;;;;17.50;10.25;;;;;;;;5079944;27;51416;-61
2022/04/02 05:27:06;;;;;;;;;15.25;11.00;;;;;;;;5079268;27;51147;-62
2022/04/02 05:30:01;;;;;;;;;11.25;8.00;;;;;;;;5079787;27;51038;-63
2022/04/02 05:32:48;;;;;;;;;11.50;7.50;;;;;;;;5077337;27;51216;-63
2022/04/02 05:35:34;;;;;;;;;15.25;8.00;;;;;;;;5079719;27;51173;-63
2022/04/02 05:38:19;;;;;;;;;12.75;10.00;;;;;;;;5078174;27;51107;-60
2022/04/02 05:41:03;;;;;;;;;11.50;9.75;;;;;;;;5079693;27;51090;-62
2022/04/02 05:43:55;;;;;;;;;13.25;9.25;;;;;;;;5075524;28;51339;-64
2022/04/02 05:46:39;;;;;;;;;12.75;8.75;;;;;;;;5075096;27;51148;-62
2022/04/02 05:49:24;;;;;;;;;16.00;12.25;;;;;;;;5083309;27;51444;-63
2022/04/02 05:52:10;;;;;;;;;15.50;11.50;;;;;;;;5082630;27;51114;-61
2022/04/02 05:54:54;;;;;;;;;16.50;12.25;;;;;;;;5083596;27;51070;-62
2022/04/02 05:57:57;;;;;;;;;8.75;4.75;;;;;;;;5080721;27;51147;-62
2022/04/02 06:00:55;;;;;;;;;17.75;12.75;;;;;;;;5082073;27;51589;-62
2022/04/02 06:03:41;;;;;;;;;29.00;28.00;;;;;;;;5082913;27;51124;-61
2022/04/02 06:06:25;;;;;;;;;13.75;11.50;;;;;;;;5081049;27;51134;-62
2022/04/02 06:09:11;;;;;;;;;22.25;15.00;;;;;;;;5082699;27;51343;-63
2022/04/02 06:12:05;;;;;;;;;15.75;11.50;;;;;;;;5080202;27;51119;-61
2022/04/02 06:14:49;;;;;;;;;25.75;15.25;;;;;;;;5082541;27;51603;-64
2022/04/02 06:17:35;;;;;;;;;16.25;12.75;;;;;;;;5082152;27;51077;-61
2022/04/02 06:20:24;;;;;;;;;13.75;12.00;;;;;;;;5082641;27;51069;-63
2022/04/02 06:23:13;;;;;;;;;13.25;11.25;;;;;;;;5082317;27;51326;-61
2022/04/02 06:26:00;;;;;;;;;14.00;12.50;;;;;;;;5081713;27;51219;-61
2022/04/02 06:28:59;;;;;;;;;14.75;11.00;;;;;;;;5082420;27;51144;-63
2022/04/02 06:31:46;;;;;;;;;17.75;12.00;;;;;;;;5083101;27;51062;-63
2022/04/02 06:34:32;;;;;;;;;14.50;10.25;;;;;;;;5082201;27;51511;-62
2022/04/02 06:37:17;;;;;;;;;19.75;11.25;;;;;;;;5080007;27;51187;-62
2022/04/02 06:40:04;;;;;;;;;17.25;15.50;;;;;;;;5083146;27;51501;-50
2022/04/02 06:42:48;;;;;;;;;18.75;12.25;;;;;;;;5082566;27;51093;-52
2022/04/02 06:45:35;;;;;;;;;17.75;13.75;;;;;;;;5081584;27;51191;-51
2022/04/02 06:48:21;;;;;;;;;13.25;10.50;;;;;;;;5082694;27;51172;-51
2022/04/02 06:51:12;;;;;;;;;18.25;12.00;;;;;;;;5082402;27;51502;-51
2022/04/02 06:53:56;;;;;;;;;18.25;16.25;;;;;;;;5081560;27;51234;-51
2022/04/02 06:56:43;;;;;;;;;17.25;12.25;;;;;;;;5082244;27;52026;-49
2022/04/02 06:59:28;;;;;;;;;19.25;12.00;;;;;;;;5081972;27;51366;-54
2022/04/02 07:02:13;;;;;;;;;18.00;13.50;;;;;;;;5082724;27;51091;-47
2022/04/02 07:04:57;;;;;;;;;16.00;13.75;;;;;;;;5081954;27;51169;-53
2022/04/02 07:07:50;;;;;;;;;22.25;14.75;;;;;;;;5082265;27;51097;-52
2022/04/02 07:10:37;;;;;;;;;13.25;12.50;;;;;;;;5082678;27;51178;-48
2022/04/02 07:13:22;;;;;;;;;26.00;20.50;;;;;;;;5077558;27;51056;-50
2022/04/02 07:16:07;;;;;;;;;21.50;20.00;;;;;;;;5080524;27;51639;-51
2022/04/02 07:18:52;;;;;;;;;30.75;22.25;;;;;;;;5081755;27;51100;-50
2022/04/02 07:22:01;;;;;;;;;28.25;19.75;;;;;;;;5082233;27;51070;-52
2022/04/02 07:24:54;;;;;;;;;26.25;19.00;;;;;;;;5079551;27;51331;-49
2022/04/02 07:27:48;;;;;;;;;27.00;16.00;;;;;;;;5082028;27;51118;-49
2022/04/02 07:30:39;;;;;;;;;16.75;15.25;;;;;;;;5081900;27;51143;-51
2022/04/02 07:33:24;;;;;;;;;21.00;17.75;;;;;;;;5081129;27;51163;-50
2022/04/02 07:36:18;;;;;;;;;24.75;20.25;;;;;;;;5081412;27;51035;-47
2022/04/02 07:39:05;;;;;;;;;30.50;21.50;;;;;;;;5081510;27;51031;-50
2022/04/02 07:41:55;;;;;;;;;19.00;16.50;;;;;;;;5081745;27;51591;-50
2022/04/02 07:45:11;;;;;;;;;15.00;12.25;;;;;;;;5081088;27;51080;-48
2022/04/02 07:47:56;;;;;;;;;17.00;11.50;;;;;;;;5074442;27;52209;-49
2022/04/02 07:50:50;;;;;;;;;21.50;12.25;;;;;;;;5081223;27;51074;-51
2022/04/02 07:54:00;;;;;;;;;11.25;10.75;;;;;;;;5081033;27;51377;-50
2022/04/02 07:56:47;;;;;;;;;15.75;7.75;;;;;;;;5079958;27;51591;-50
2022/04/02 07:59:35;;;;;;;;;17.25;7.75;;;;;;;;5081010;27;51510;-52
2022/04/02 08:02:43;;;;;;;;;11.00;9.50;;;;;;;;5081352;27;51586;-50
2022/04/02 08:05:30;;;;;;;;;11.50;8.50;;;;;;;;5077163;27;51211;-50
2022/04/02 08:08:15;;;;;;;;;12.25;7.50;;;;;;;;5081091;27;51358;-50
2022/04/02 08:11:01;;;;;;;;;9.00;8.50;;;;;;;;5080774;27;51424;-49
2022/04/02 08:13:46;;;;;;;;;8.25;7.50;;;;;;;;5077916;27;52012;-50
2022/04/02 08:16:33;;;;;;;;;10.25;6.75;;;;;;;;5076707;27;51152;-54
2022/04/02 08:19:23;;;;;;;;;11.00;8.25;;;;;;;;5080339;27;51200;-53
2022/04/02 08:22:07;;;;;;;;;14.00;9.00;;;;;;;;5077205;27;51395;-55
2022/04/02 08:25:00;;;;;;;;;15.25;12.00;;;;;;;;5080288;27;51174;-51
2022/04/02 08:27:47;;;;;;;;;16.75;12.25;;;;;;;;5080706;27;51225;-52
2022/04/02 08:30:58;;;;;;;;;7.00;2.75;;;;;;;;5080700;27;51450;-49
2022/04/02 08:33:54;;;;;;;;;13.50;7.75;;;;;;;;5080524;27;51502;-51
2022/04/02 08:36:42;;;;;;;;;9.50;8.25;;;;;;;;5079509;27;51165;-50
2022/04/02 08:39:32;;;;;;;;;17.25;11.75;;;;;;;;5078075;27;51345;-52
2022/04/02 08:42:35;;;;;;;;;14.75;9.75;;;;;;;;5080561;27;51548;-53
2022/04/02 08:45:32;;;;;;;;;21.25;7.75;;;;;;;;5074028;27;51178;-49
2022/04/02 08:48:21;;;;;;;;;7.50;6.75;;;;;;;;5075984;27;52492;-49
2022/04/02 08:51:37;;;;;;;;;10.25;7.25;;;;;;;;5071058;27;51187;-52
2022/04/02 08:54:33;;;;;;;;;11.50;9.75;;;;;;;;5078424;27;51190;-52
2022/04/02 08:57:57;;;;;;;;;12.50;10.25;;;;;;;;5092574;27;51137;-48
2022/04/02 09:00:43;;;;;;;;;12.75;10.00;;;;;;;;5015981;28;51451;-50
2022/04/02 09:03:40;;;;;;;;;10.25;5.50;;;;;;;;5002271;28;51305;-51
2022/04/02 09:06:43;;;;;;;;;12.50;5.50;;;;;;;;5076216;27;51077;-50
2022/04/02 09:09:46;;;;;;;;;12.75;9.75;;;;;;;;5078895;27;51157;-50
2022/04/02 09:12:54;;;;;;;;;12.50;9.25;;;;;;;;5077488;27;51287;-51
2022/04/02 09:15:50;;;;;;;;;19.50;13.25;;;;;;;;5079735;27;51451;-51
2022/04/02 09:18:39;;;;;;;;;18.25;10.75;;;;;;;;5078246;27;51169;-51
2022/04/02 09:21:37;;;;;;;;;19.25;12.50;;;;;;;;5078724;27;51243;-50
2022/04/02 09:24:26;;;;;;;;;12.00;10.50;;;;;;;;5078978;27;51366;-50
2022/04/02 09:27:29;;;;;;;;;16.00;10.25;;;;;;;;5079222;27;51098;-52
2022/04/02 09:30:23;;;;;;;;;15.00;12.25;;;;;;;;5078298;27;51218;-51
2022/04/02 09:33:14;;;;;;;;;11.00;10.25;;;;;;;;5074846;27;51231;-52
2022/04/02 09:35:58;;;;;;;;;12.25;9.25;;;;;;;;5074985;27;51041;-52
2022/04/02 09:38:51;;;;;;;;;17.50;11.75;;;;;;;;5078095;27;51212;-50
2022/04/02 09:41:57;;;;;;;;;12.00;10.50;;;;;;;;5078692;28;51487;-50
2022/04/02 09:45:00;;;;;;;;;12.00;9.75;;;;;;;;5073884;28;51097;-50
2022/04/02 09:47:47;;;;;;;;;19.50;11.75;;;;;;;;5076444;27;51059;-52
2022/04/02 09:50:37;;;;;;;;;13.75;9.25;;;;;;;;5078261;27;51086;-49
2022/04/02 09:53:47;;;;;;;;;16.25;10.50;;;;;;;;5078779;28;51372;-48
2022/04/02 09:56:39;;;;;;;;;13.75;10.00;;;;;;;;5077336;27;51096;-53
2022/04/02 09:59:38;;;;;;;;;16.50;11.50;;;;;;;;5074515;28;51268;-51
2022/04/02 10:02:43;;;;;;;;;16.75;11.25;;;;;;;;5075784;28;51545;-52
2022/04/02 10:05:51;;;;;;;;;13.75;9.50;;;;;;;;5078613;28;51066;-49
2022/04/02 10:08:40;;;;;;;;;13.25;8.75;;;;;;;;5078819;27;51070;-50
2022/04/02 10:11:30;;;;;;;;;17.50;11.25;;;;;;;;5078761;28;51069;-51
2022/04/02 10:14:19;;;;;;;;;11.50;11.00;;;;;;;;5076162;28;51132;-51
2022/04/02 10:17:04;;;;;;;;;10.25;6.25;;;;;;;;5077461;27;51426;-49
2022/04/02 10:19:50;;;;;;;;;12.50;9.00;;;;;;;;5078880;28;51396;-50
2022/04/02 10:22:46;;;;;;;;;15.75;12.25;;;;;;;;5078880;27;51189;-50
2022/04/02 10:25:33;;;;;;;;;14.50;10.00;;;;;;;;5077834;28;51122;-51
2022/04/02 10:28:27;;;;;;;;;18.25;11.00;;;;;;;;5078595;27;51560;-50
2022/04/02 10:31:17;;;;;;;;;11.50;11.00;;;;;;;;5077752;28;51142;-53
2022/04/02 10:34:08;;;;;;;;;7.25;6.75;;;;;;;;5081488;27;51382;-49
2022/04/02 10:36:56;;;;;;;;;16.50;10.00;;;;;;;;5082048;27;51209;-49
2022/04/02 10:39:49;;;;;;;;;20.50;11.25;;;;;;;;5078431;27;51026;-48
2022/04/02 10:42:36;;;;;;;;;15.50;10.75;;;;;;;;5082087;27;51164;-49
2022/04/02 10:45:25;;;;;;;;;14.00;13.25;;;;;;;;5081784;27;51100;-48
2022/04/02 10:48:13;;;;;;;;;12.75;11.50;;;;;;;;5079640;27;51061;-49
2022/04/02 10:51:01;;;;;;;;;16.00;11.50;;;;;;;;5081944;27;51024;-49
2022/04/02 10:53:47;;;;;;;;;15.25;10.50;;;;;;;;5081805;27;51165;-49
2022/04/02 10:56:42;;;;;;;;;13.50;8.50;;;;;;;;5080856;27;51173;-50
2022/04/02 10:59:32;;;;;;;;;12.75;10.25;;;;;;;;5081051;27;51481;-52
2022/04/02 11:02:23;;;;;;;;;16.50;10.50;;;;;;;;5080559;27;51097;-51
2022/04/02 11:05:29;;;;;;;;;15.50;11.00;;;;;;;;5077008;27;51005;-49
2022/04/02 11:08:14;;;;;;;;;10.50;9.25;;;;;;;;5081619;27;51637;-53
2022/04/02 11:11:15;;;;;;;;;15.25;12.75;;;;;;;;5081746;27;51156;-52
2022/04/02 11:14:10;;;;;;;;;13.50;8.25;;;;;;;;5081605;27;51190;-50
2022/04/02 11:17:29;;;;;;;;;15.75;10.25;;;;;;;;5081128;27;51154;-53
2022/04/02 11:20:15;;;;;;;;;19.75;11.75;;;;;;;;5040872;28;51160;-52
2022/04/02 11:22:59;;;;;;;;;23.25;14.00;;;;;;;;5040928;28;51106;-50
2022/04/02 11:25:56;;;;;;;;;16.50;11.00;;;;;;;;5040696;28;51401;-50
2022/04/02 11:29:01;;;;;;;;;12.50;11.00;;;;;;;;5035599;28;51189;-53
2022/04/02 11:31:48;;;;;;;;;17.75;12.50;;;;;;;;5040825;28;50944;-51
2022/04/02 11:34:34;;;;;;;;;17.25;10.50;;;;;;;;5030289;28;51140;-52
2022/04/02 11:37:31;;;;;;;;;10.50;9.50;;;;;;;;5033074;28;51295;-52
2022/04/02 11:40:16;;;;;;;;;14.50;11.50;;;;;;;;5026513;28;51162;-55
2022/04/02 11:43:01;;;;;;;;;13.50;9.25;;;;;;;;5030285;28;51432;-53
2022/04/02 11:45:47;;;;;;;;;16.00;10.75;;;;;;;;5034066;28;51441;-52
2022/04/02 11:48:33;;;;;;;;;14.75;10.50;;;;;;;;5038909;28;51213;-51
2022/04/02 11:51:19;;;;;;;;;11.00;10.75;;;;;;;;5041030;28;51478;-50
2022/04/02 11:54:07;;;;;;;;;14.50;11.50;;;;;;;;5041142;28;51115;-53
2022/04/02 11:56:53;;;;;;;;;13.50;9.00;;;;;;;;5040814;28;51044;-53
2022/04/02 11:59:39;;;;;;;;;11.25;8.00;;;;;;;;5039788;28;51236;-52
2022/04/02 12:02:43;;;;;;;;;13.50;7.50;;;;;;;;5038883;28;51514;-53
2022/04/02 12:05:53;;;;;;;;;10.50;7.75;;;;;;;;5034510;28;51217;-55
2022/04/02 12:08:38;;;;;;;;;8.50;6.00;;;;;;;;5040650;28;51055;-50
2022/04/02 12:11:24;;;;;;;;;11.00;7.50;;;;;;;;5040127;28;51099;-52
2022/04/02 12:14:10;;;;;;;;;11.25;6.00;;;;;;;;5035812;28;51081;-53
2022/04/02 12:17:03;;;;;;;;;16.50;9.00;;;;;;;;5039890;28;51467;-51
2022/04/02 12:19:56;;;;;;;;;17.50;9.75;;;;;;;;5072657;27;51083;-54
2022/04/02 12:22:46;;;;;;;;;12.00;5.25;;;;;;;;5080674;27;51195;-51
2022/04/02 12:25:31;;;;;;;;;11.00;9.00;;;;;;;;5080456;27;51444;-53
2022/04/02 12:28:19;;;;;;;;;14.00;9.00;;;;;;;;5080669;27;51405;-52
2022/04/02 12:31:30;;;;;;;;;9.00;6.25;;;;;;;;5079977;27;51204;-49
2022/04/02 12:34:20;;;;;;;;;9.75;7.00;;;;;;;;5079212;27;51157;-53
2022/04/02 12:37:05;;;;;;;;;13.25;8.00;;;;;;;;5073053;27;51618;-52
2022/04/02 12:39:52;;;;;;;;;10.75;6.25;;;;;;;;5079951;27;51308;-51
2022/04/02 12:42:44;;;;;;;;;10.25;6.50;;;;;;;;5080012;27;51214;-52
2022/04/02 12:45:44;;;;;;;;;11.00;7.00;;;;;;;;5079197;27;51055;-51
2022/04/02 12:48:44;;;;;;;;;15.50;7.75;;;;;;;;5079443;27;51087;-51
2022/04/02 12:51:32;;;;;;;;;14.00;6.75;;;;;;;;5079581;27;51415;-51
2022/04/02 12:54:35;;;;;;;;;13.75;6.50;;;;;;;;5077507;27;51110;-50
2022/04/02 12:57:20;;;;;;;;;12.50;9.75;;;;;;;;5081708;27;51068;-53
2022/04/02 13:00:08;;;;;;;;;8.25;6.50;;;;;;;;5080048;27;51161;-51
2022/04/02 13:02:57;;;;;;;;;10.50;8.25;;;;;;;;5077204;27;51159;-54
2022/04/02 13:05:54;;;;;;;;;11.25;10.50;;;;;;;;5074637;27;51531;-55
2022/04/02 13:08:50;;;;;;;;;11.75;5.75;;;;;;;;5072266;27;51122;-50
2022/04/02 13:11:53;;;;;;;;;11.25;8.25;;;;;;;;5076470;27;51120;-51
2022/04/02 13:14:57;;;;;;;;;10.00;6.75;;;;;;;;5078201;27;51168;-49
2022/04/02 13:20:51;;;;;;;;;10.25;8.25;;;;;;;;5058990;27;51224;-51
2022/04/02 13:23:54;;;;;;;;;10.00;5.50;;;;;;;;5077348;27;51119;-53
2022/04/02 13:26:50;;;;;;;;;10.75;6.50;;;;;;;;5074215;27;51069;-54
2022/04/02 13:29:35;;;;;;;;;10.00;6.50;;;;;;;;5068529;27;51134;-48
2022/04/02 13:32:28;;;;;;;;;9.50;6.00;;;;;;;;5065016;27;51189;-49
2022/04/02 13:35:22;;;;;;;;;6.75;4.00;;;;;;;;5069314;27;51132;-51
2022/04/02 13:38:08;;;;;;;;;6.50;5.75;;;;;;;;5069515;27;51171;-53
2022/04/02 13:40:56;;;;;;;;;9.75;6.50;;;;;;;;5069862;27;51432;-51
2022/04/02 13:43:46;;;;;;;;;4.75;4.25;;;;;;;;5067847;27;51210;-52
2022/04/02 13:46:44;;;;;;;;;14.50;6.50;;;;;;;;5072440;28;51370;-49
2022/04/02 13:49:30;;;;;;;;;5.75;5.75;;;;;;;;5063713;28;52157;-51
2022/04/02 13:52:22;;;;;;;;;9.00;6.00;;;;;;;;5068954;28;51122;-51
2022/04/02 13:55:07;;;;;;;;;11.75;7.00;;;;;;;;5065432;28;51209;-51
2022/04/02 13:57:52;;;;;;;;;8.50;6.75;;;;;;;;5063735;28;51477;-51
2022/04/02 14:00:42;;;;;;;;;7.75;5.00;;;;;;;;5071163;28;51204;-51
2022/04/02 14:03:28;;;;;;;;;12.50;11.25;;;;;;;;5069354;28;51139;-51
2022/04/02 14:06:14;;;;;;;;;14.25;6.50;;;;;;;;5066392;28;51552;-55
2022/04/02 14:09:02;;;;;;;;;9.75;6.00;;;;;;;;5070081;27;51119;-50
2022/04/02 14:11:49;;;;;;;;;9.25;7.00;;;;;;;;5075498;27;51145;-49
2022/04/02 14:14:52;;;;;;;;;10.75;5.25;;;;;;;;5072158;27;51083;-50
2022/04/02 14:17:53;;;;;;;;;8.00;5.50;;;;;;;;5073363;27;51110;-49
2022/04/02 14:20:37;;;;;;;;;8.00;5.25;;;;;;;;5057001;28;51415;-50
2022/04/02 14:23:29;;;;;;;;;9.50;7.25;;;;;;;;5049986;28;51133;-51
2022/04/02 14:26:32;;;;;;;;;10.25;6.50;;;;;;;;5054462;28;51268;-51
2022/04/02 14:29:29;;;;;;;;;8.00;5.75;;;;;;;;5050826;28;51011;-54
2022/04/02 14:32:31;;;;;;;;;10.75;6.50;;;;;;;;5048237;28;51432;-53
2022/04/02 14:35:34;;;;;;;;;9.00;6.25;;;;;;;;5051879;28;51116;-50
2022/04/02 14:38:30;;;;;;;;;7.25;4.25;;;;;;;;5048825;28;51370;-49
2022/04/02 14:41:27;;;;;;;;;10.00;8.25;;;;;;;;5046822;28;51249;-46
2022/04/02 14:44:23;;;;;;;;;11.00;7.00;;;;;;;;5049397;28;51205;-50
2022/04/02 14:47:10;;;;;;;;;11.50;7.75;;;;;;;;5050970;28;51366;-53
2022/04/02 14:50:13;;;;;;;;;11.25;8.50;;;;;;;;5049162;28;51264;-49
2022/04/02 14:53:10;;;;;;;;;13.75;10.25;;;;;;;;5047594;28;51537;-50
2022/04/02 14:55:54;;;;;;;;;10.75;10.75;;;;;;;;5051133;28;51246;-53
2022/04/02 14:58:38;;;;;;;;;15.25;9.00;;;;;;;;5046180;28;51244;-50
2022/04/02 15:01:41;;;;;;;;;13.75;10.50;;;;;;;;5050536;28;51556;-54
2022/04/02 15:04:39;;;;;;;;;8.00;8.00;;;;;;;;5047559;28;51561;-53
2022/04/02 15:07:41;;;;;;;;;6.00;6.00;;;;;;;;5047969;28;51279;-52
2022/04/02 15:10:33;;;;;;;;;6.25;2.25;;;;;;;;5044644;28;51157;-52
2022/04/02 15:13:22;;;;;;;;;9.50;6.00;;;;;;;;5048308;27;51144;-54
2022/04/02 15:16:07;;;;;;;;;8.00;6.75;;;;;;;;5050809;28;51326;-47
2022/04/02 15:18:52;;;;;;;;;9.25;6.00;;;;;;;;5056782;27;51881;-48
2022/04/02 15:21:37;;;;;;;;;10.75;5.50;;;;;;;;5072187;27;51285;-52
2022/04/02 15:24:23;;;;;;;;;9.00;4.50;;;;;;;;5069055;27;51529;-51
2022/04/02 15:27:15;;;;;;;;;12.25;7.00;;;;;;;;5081797;27;51155;-49
2022/04/02 15:30:03;;;;;;;;;7.00;4.00;;;;;;;;5070876;27;51739;-54
2022/04/02 15:32:54;;;;;;;;;12.25;9.00;;;;;;;;5081508;27;51084;-48
2022/04/02 15:35:43;;;;;;;;;16.25;12.50;;;;;;;;5081537;27;51140;-51
2022/04/02 15:38:27;;;;;;;;;18.50;12.75;;;;;;;;5077434;27;51172;-50
2022/04/02 15:41:12;;;;;;;;;10.75;7.00;;;;;;;;5080771;27;51078;-48
2022/04/02 15:43:59;;;;;;;;;6.75;5.25;;;;;;;;5080654;27;51263;-47
2022/04/02 15:46:45;;;;;;;;;8.50;6.25;;;;;;;;5081021;27;51026;-50
2022/04/02 15:49:46;;;;;;;;;8.25;5.00;;;;;;;;5067208;27;51514;-49
2022/04/02 15:52:30;;;;;;;;;8.50;6.00;;;;;;;;5068274;27;51056;-50
2022/04/02 15:55:16;;;;;;;;;12.00;7.25;;;;;;;;5067443;27;51155;-47
2022/04/02 15:58:10;;;;;;;;;10.25;7.25;;;;;;;;5064004;27;51169;-52
2022/04/02 16:00:54;;;;;;;;;11.50;7.50;;;;;;;;5071577;27;51201;-51
2022/04/02 16:04:00;;;;;;;;;10.00;6.75;;;;;;;;5066179;27;51544;-50
2022/04/02 16:06:45;;;;;;;;;9.25;6.50;;;;;;;;5063705;27;51062;-48
2022/04/02 16:09:38;;;;;;;;;11.00;7.75;;;;;;;;5078919;27;51168;-48
2022/04/02 16:12:36;;;;;;;;;10.50;6.50;;;;;;;;5077952;27;51019;-50
2022/04/02 16:15:22;;;;;;;;;7.75;7.25;;;;;;;;5078025;27;51436;-50
2022/04/02 16:18:21;;;;;;;;;14.50;8.00;;;;;;;;5080091;27;51113;-50
2022/04/02 16:21:17;;;;;;;;;13.00;8.25;;;;;;;;5079351;27;51074;-48
2022/04/02 16:24:01;;;;;;;;;10.50;6.75;;;;;;;;5057432;27;51705;-47
2022/04/02 16:26:50;;;;;;;;;12.25;8.50;;;;;;;;5080130;27;51088;-53
2022/04/02 16:29:34;;;;;;;;;10.75;7.75;;;;;;;;5079620;27;51389;-53
2022/04/02 16:32:25;;;;;;;;;14.75;10.00;;;;;;;;5080310;27;51072;-54
2022/04/02 16:35:13;;;;;;;;;9.25;7.50;;;;;;;;5080451;27;51092;-53
2022/04/02 16:38:06;;;;;;;;;12.50;7.25;;;;;;;;5078950;27;51196;-49
2022/04/02 16:41:12;;;;;;;;;8.75;7.00;;;;;;;;5072313;27;51507;-48
2022/04/02 16:44:13;;;;;;;;;9.50;8.00;;;;;;;;5069727;27;51229;-47
2022/04/02 16:47:17;;;;;;;;;11.00;10.25;;;;;;;;5069420;27;51169;-48
2022/04/02 16:50:08;;;;;;;;;12.25;7.00;;;;;;;;5076037;27;51074;-52
2022/04/02 16:52:53;;;;;;;;;7.75;7.00;;;;;;;;5079407;27;51106;-53